Airfield :
LOGIN :

Register | Disclaimer

   EN    FR    IT 

 










Legend :    VFR   Marginal VFR   IFR   Intensive IFR   Very Intensive IFR
Visi :
Ceiling :
>= 8 km
>= 3000ft
5 to 8 km
1000 to 3000 ft
1500m to 5 km
500 to 1000 ft
800 to 1500m
200 to 500 ft
< 800m
< 200 ft
Symbols :   Thunderstorms  Fog  Heavy snow  Heavy precipitations  Wind > 20 kt
SIGMETs :     Misc.  Thunderstorms  Icing  Turbulence  Mountain Waves  Volcanic Ashes







- Airport Elevation : 14 ft
- IATA code : BRE


EDDW - Bremen Neuenland

CURRENT METAR :
  • 271220Z 31012KT 290V350 9999 SCT022 BKN028 17/11 Q1028 NOSIG

EXPIRED METARs :
  • 271150Z 30011KT 9999 SCT019 BKN027 17/11 Q1028 NOSIG
  • 271120Z 30012KT 270V330 9999 SCT016 BKN026 17/11 Q1028 NOSIG
  • 271050Z 31012KT 280V340 9999 SCT016 BKN020 15/12 Q1028 NOSIG
  • 271020Z 30012KT 9999 BKN020 16/11 Q1028 NOSIG
  • 270950Z 31013KT 9999 BKN019 16/11 Q1028 NOSIG

TAF TAF EDDW
Valid from the 27 at 12:00 until the 28 at 12:00 UTC


271100Z 2712/2812 31012KT 9999 BKN020
TEMPO 2712/2717 32015G25KT
BECMG 2718/2720 31006KT
No reported NOTAMs for that airfield.



MET'MAP, your aeronautical weather chart ! - Copyright ORBIFLY December 2007 - Disclaimer

ORBIFLY MET'MAP TEAM :

Programming & Development : Alexandra Zaïnal
Concept & Development : Baudouin d'Aumeries
Co-Development & Prog : Marc-Olivier Méhu
Technical & hardware support : Manuel Goepfert

Contact : metmap@orbifly.com




SOURCES & CREDITS :

   NOAA